Time;durP1;ratioP1;P1;durP2;ratioP2;P2;SDS_P1;SDS_P2;PMS_P1;PMS_P2;Temp;Humidity;BMP_temperature;BMP_pressure;BME280_temperature;BME280_humidity;BME280_pressure;Samples;Min_cycle;Max_cycle;Signal;HPM_P1;HPM_P2
2021/12/01 00:02:23;;;;;;;1.60;1.10;;;5.00;97.70;;;;;;5121552;28;20470;-45
2021/12/01 00:04:49;;;;;;;1.73;1.10;;;5.00;97.80;;;;;;5122155;28;20175;-45
2021/12/01 00:07:15;;;;;;;1.30;1.00;;;5.00;97.80;;;;;;5121656;28;20275;-44
2021/12/01 00:09:41;;;;;;;1.40;1.17;;;5.00;97.80;;;;;;5122077;28;20168;-44
2021/12/01 00:12:07;;;;;;;1.30;1.20;;;5.00;97.80;;;;;;5121603;28;20558;-45
2021/12/01 00:14:32;;;;;;;1.10;0.90;;;4.90;97.80;;;;;;5122010;28;20191;-45
2021/12/01 00:16:58;;;;;;;2.60;1.30;;;5.00;98.20;;;;;;5121712;28;20425;-44
2021/12/01 00:19:24;;;;;;;1.10;0.90;;;4.90;97.80;;;;;;5117352;28;20455;-44
2021/12/01 00:21:49;;;;;;;1.20;0.90;;;4.90;97.80;;;;;;5112692;28;20200;-45
2021/12/01 00:24:15;;;;;;;1.27;0.77;;;4.90;97.70;;;;;;5121650;28;20800;-45
2021/12/01 00:26:41;;;;;;;1.10;0.70;;;4.90;97.70;;;;;;5121136;28;20177;-44
2021/12/01 00:29:07;;;;;;;1.30;0.70;;;4.90;97.70;;;;;;5121182;28;20225;-45
2021/12/01 00:31:33;;;;;;;1.07;0.90;;;4.90;97.70;;;;;;5121115;28;20421;-44
2021/12/01 00:34:00;;;;;;;1.00;0.87;;;4.90;97.60;;;;;;5118080;28;20267;-45
2021/12/01 00:36:29;;;;;;;0.90;0.70;;;4.90;97.70;;;;;;5108780;28;20794;-44
2021/12/01 00:38:55;;;;;;;1.27;0.80;;;4.90;97.70;;;;;;5110244;28;20425;-45
2021/12/01 00:41:22;;;;;;;1.03;0.57;;;4.90;98.00;;;;;;5110116;28;20705;-44
2021/12/01 00:43:48;;;;;;;1.20;0.83;;;4.90;97.70;;;;;;5108980;28;20347;-45
2021/12/01 00:46:19;;;;;;;2.20;0.80;;;4.90;97.70;;;;;;5110871;28;20524;-45
2021/12/01 00:48:46;;;;;;;0.90;0.70;;;4.90;97.70;;;;;;5111279;28;20165;-44
2021/12/01 00:51:12;;;;;;;1.17;0.80;;;4.90;97.70;;;;;;5108524;28;20428;-45
2021/12/01 00:53:38;;;;;;;1.70;0.67;;;4.90;97.70;;;;;;5100092;28;20462;-44
2021/12/01 00:56:04;;;;;;;1.10;0.90;;;5.00;97.70;;;;;;5099511;28;20709;-44
2021/12/01 00:58:30;;;;;;;1.20;0.90;;;5.00;97.70;;;;;;5100732;28;20177;-44
2021/12/01 01:00:55;;;;;;;1.83;1.20;;;5.00;97.70;;;;;;5099572;28;20434;-44
2021/12/01 01:03:21;;;;;;;2.00;0.93;;;4.90;97.60;;;;;;5099851;28;20208;-44
2021/12/01 01:05:48;;;;;;;3.33;1.13;;;4.90;97.60;;;;;;5100539;28;20249;-44
2021/12/01 01:08:15;;;;;;;1.20;0.90;;;4.90;97.60;;;;;;5099479;28;20407;-44
2021/12/01 01:18:45;;;;;;;1.63;1.30;;;5.20;99.90;;;;;;5099760;28;20728;-42
2021/12/01 01:21:11;;;;;;;1.20;1.10;;;6.60;99.90;;;;;;5099257;28;20445;-43
2021/12/01 01:23:40;;;;;;;1.83;1.20;;;7.60;99.90;;;;;;5100491;28;20842;-42
2021/12/01 01:26:09;;;;;;;2.37;0.70;;;8.40;99.90;;;;;;5099249;28;20426;-43
2021/12/01 01:28:35;;;;;;;2.30;0.80;;;9.10;99.90;;;;;;5098858;28;20813;-44
2021/12/01 01:31:01;;;;;;;2.43;1.10;;;9.70;99.90;;;;;;5098842;28;20454;-44
2021/12/01 01:33:27;;;;;;;1.53;1.30;;;9.70;96.20;;;;;;5099682;28;20506;-44
2021/12/01 01:35:53;;;;;;;1.50;1.37;;;9.30;94.90;;;;;;5099384;28;20526;-44
2021/12/01 01:38:19;;;;;;;2.47;1.40;;;9.00;94.40;;;;;;5099863;28;20172;-44
2021/12/01 01:40:45;;;;;;;1.43;1.33;;;8.50;93.30;;;;;;5099461;28;20188;-44
2021/12/01 01:43:11;;;;;;;3.03;2.30;;;8.00;92.60;;;;;;5100098;28;20462;-44
2021/12/01 01:45:37;;;;;;;1.57;1.33;;;7.50;92.70;;;;;;5099772;28;20430;-44
2021/12/01 01:48:08;;;;;;;1.63;1.37;;;7.20;93.20;;;;;;5098137;28;20472;-44
2021/12/01 01:50:36;;;;;;;1.70;1.20;;;6.90;93.50;;;;;;5099399;28;20438;-44
2021/12/01 01:53:20;;;;;;;1.60;1.47;;;6.70;93.90;;;;;;5099618;28;20463;-44
2021/12/01 01:55:49;;;;;;;1.63;1.20;;;6.40;94.30;;;;;;5099364;28;20669;-44
2021/12/01 01:58:15;;;;;;;2.67;1.50;;;6.20;94.60;;;;;;5099401;28;20468;-44
2021/12/01 02:01:05;;;;;;;1.40;1.13;;;6.10;95.00;;;;;;5099116;28;20428;-44
2021/12/01 02:03:31;;;;;;;2.53;1.00;;;6.00;95.20;;;;;;5099185;28;20560;-44
2021/12/01 02:05:56;;;;;;;1.70;1.10;;;5.80;95.60;;;;;;5099307;28;20514;-44
2021/12/01 02:08:29;;;;;;;2.70;1.40;;;5.70;95.80;;;;;;5097828;28;20472;-45
2021/12/01 02:10:57;;;;;;;1.33;1.10;;;5.70;96.00;;;;;;5098730;28;20260;-44
2021/12/01 02:16:45;;;;;;;1.37;1.27;;;5.60;96.20;;;;;;5116918;27;20433;-44
2021/12/01 02:19:11;;;;;;;1.53;1.10;;;5.60;96.30;;;;;;5119245;28;20409;-44
2021/12/01 02:21:37;;;;;;;1.63;1.10;;;5.60;96.40;;;;;;5119215;28;20437;-43
2021/12/01 02:24:08;;;;;;;2.10;1.10;;;5.60;96.40;;;;;;5119213;27;20171;-44
2021/12/01 02:26:46;;;;;;;2.10;1.20;;;5.50;96.40;;;;;;5118834;28;20457;-44
2021/12/01 02:29:14;;;;;;;1.10;1.00;;;5.60;96.50;;;;;;5119280;28;20410;-44
2021/12/01 02:31:41;;;;;;;1.30;1.10;;;5.60;96.60;;;;;;5119254;28;20433;-44
2021/12/01 02:34:09;;;;;;;1.37;0.87;;;5.50;96.60;;;;;;5118609;28;20406;-45
2021/12/01 02:36:36;;;;;;;1.30;1.03;;;5.50;96.60;;;;;;5111962;28;20801;-44
2021/12/01 02:39:09;;;;;;;1.63;1.20;;;5.50;96.60;;;;;;5108636;28;20485;-45
2021/12/01 02:41:35;;;;;;;1.83;1.10;;;5.50;96.60;;;;;;5108413;28;20778;-44
2021/12/01 02:44:03;;;;;;;1.70;1.10;;;5.50;96.60;;;;;;5106393;28;20720;-45
2021/12/01 02:46:29;;;;;;;1.50;1.20;;;5.50;96.60;;;;;;5111965;28;20491;-45
2021/12/01 02:48:56;;;;;;;1.30;1.13;;;5.50;96.60;;;;;;5118305;28;20402;-45
2021/12/01 02:51:24;;;;;;;1.43;0.93;;;5.50;96.70;;;;;;5118377;28;20444;-45
2021/12/01 02:53:50;;;;;;;1.30;1.00;;;5.50;96.70;;;;;;5118313;28;20501;-45
2021/12/01 02:56:16;;;;;;;1.97;1.33;;;5.50;97.00;;;;;;5118921;28;20433;-45
2021/12/01 02:58:43;;;;;;;1.40;1.13;;;5.50;96.80;;;;;;5118584;27;20176;-45
2021/12/01 03:01:16;;;;;;;2.43;1.30;;;5.50;96.80;;;;;;5118285;28;20440;-44
2021/12/01 03:03:42;;;;;;;1.40;1.23;;;5.50;96.80;;;;;;5118266;28;20530;-44
2021/12/01 03:06:08;;;;;;;2.20;1.10;;;5.50;96.80;;;;;;5118205;27;20820;-44
2021/12/01 03:08:35;;;;;;;1.33;1.00;;;5.60;96.80;;;;;;5118423;28;20428;-45
2021/12/01 03:11:02;;;;;;;1.23;1.10;;;5.50;96.80;;;;;;5118292;28;20506;-45
2021/12/01 03:13:28;;;;;;;1.30;1.20;;;5.60;96.90;;;;;;5109444;28;20418;-44
2021/12/01 03:15:55;;;;;;;2.03;1.70;;;5.60;96.90;;;;;;5109237;28;20848;-45
2021/12/01 03:18:22;;;;;;;2.10;1.20;;;5.60;96.90;;;;;;5109675;28;20208;-44
2021/12/01 03:20:49;;;;;;;1.90;1.43;;;5.50;96.80;;;;;;5112769;28;20481;-44
2021/12/01 03:23:16;;;;;;;1.30;1.13;;;5.50;96.90;;;;;;5115026;28;20474;-44
2021/12/01 03:25:42;;;;;;;1.60;1.20;;;5.50;97.00;;;;;;5102357;28;20602;-44
2021/12/01 03:28:08;;;;;;;2.03;1.70;;;5.50;97.00;;;;;;5117974;28;20414;-45
2021/12/01 03:30:37;;;;;;;1.47;1.37;;;5.50;97.00;;;;;;5118135;28;20438;-45
2021/12/01 03:33:04;;;;;;;3.27;1.77;;;5.60;97.10;;;;;;5117737;28;20752;-45
2021/12/01 03:35:30;;;;;;;3.70;1.50;;;5.60;97.10;;;;;;5099164;28;20429;-44
2021/12/01 03:37:56;;;;;;;2.60;1.43;;;5.60;97.00;;;;;;5097065;28;20418;-45
2021/12/01 03:40:22;;;;;;;2.13;1.93;;;5.60;97.00;;;;;;5096784;28;20567;-45
2021/12/01 03:42:48;;;;;;;2.20;1.53;;;5.70;97.30;;;;;;5097245;28;20474;-45
2021/12/01 03:45:15;;;;;;;2.10;1.67;;;5.70;97.00;;;;;;5100512;28;20194;-45
2021/12/01 03:47:42;;;;;;;1.80;1.23;;;5.70;96.90;;;;;;5118253;28;20284;-45
2021/12/01 03:50:08;;;;;;;1.67;1.30;;;5.70;96.90;;;;;;5118368;28;20701;-45
2021/12/01 03:52:34;;;;;;;1.30;1.13;;;5.70;96.90;;;;;;5117684;28;20448;-45
2021/12/01 03:54:59;;;;;;;1.63;1.30;;;5.70;96.90;;;;;;5100587;28;20434;-44
2021/12/01 03:57:25;;;;;;;1.30;1.10;;;5.80;97.00;;;;;;5117381;28;20196;-44
2021/12/01 03:59:51;;;;;;;1.77;1.50;;;5.80;96.90;;;;;;5117685;28;20181;-44
2021/12/01 04:02:17;;;;;;;1.70;1.23;;;5.80;97.00;;;;;;5116757;28;20619;-45
2021/12/01 04:04:43;;;;;;;1.67;1.40;;;5.80;97.00;;;;;;5116903;28;20421;-45
2021/12/01 04:07:09;;;;;;;1.70;1.20;;;5.80;97.00;;;;;;5118083;28;20233;-45
2021/12/01 04:09:36;;;;;;;2.07;1.50;;;5.80;97.00;;;;;;5118006;28;20523;-45
2021/12/01 04:12:01;;;;;;;2.37;1.53;;;5.80;97.10;;;;;;5119421;28;20570;-45
2021/12/01 04:14:27;;;;;;;2.10;1.63;;;5.80;97.10;;;;;;5121691;28;20409;-45
2021/12/01 04:16:53;;;;;;;1.50;1.40;;;5.80;97.20;;;;;;5121677;28;20225;-44
2021/12/01 04:19:18;;;;;;;2.30;2.00;;;5.80;97.20;;;;;;5120836;28;20194;-45
2021/12/01 04:21:44;;;;;;;1.97;1.20;;;5.80;97.20;;;;;;5120643;28;20226;-45
2021/12/01 04:24:10;;;;;;;1.60;1.23;;;5.80;97.20;;;;;;5121418;28;20176;-44
2021/12/01 04:26:36;;;;;;;2.63;1.90;;;5.80;97.20;;;;;;5121441;28;20183;-44
2021/12/01 04:29:03;;;;;;;1.90;1.30;;;5.80;97.10;;;;;;5121442;28;20179;-44
2021/12/01 04:31:31;;;;;;;1.40;1.30;;;5.80;97.20;;;;;;5121161;27;20490;-44
2021/12/01 04:33:57;;;;;;;2.53;1.40;;;5.90;97.20;;;;;;5121945;28;20761;-44
2021/12/01 04:36:29;;;;;;;2.40;1.20;;;5.90;97.20;;;;;;5120096;28;20506;-44
2021/12/01 04:38:54;;;;;;;2.27;1.20;;;5.90;97.20;;;;;;5120835;28;20416;-44
2021/12/01 04:41:22;;;;;;;1.43;1.20;;;5.90;97.10;;;;;;5121220;28;20437;-44
2021/12/01 04:43:48;;;;;;;1.47;1.30;;;5.90;97.10;;;;;;5121194;28;20226;-44
2021/12/01 04:46:16;;;;;;;1.53;1.23;;;5.90;97.10;;;;;;5121220;28;20438;-44
2021/12/01 04:48:42;;;;;;;2.30;1.20;;;5.90;97.00;;;;;;5121327;28;20417;-43
2021/12/01 04:51:08;;;;;;;2.33;0.97;;;5.90;97.00;;;;;;5120903;28;20425;-44
2021/12/01 04:53:33;;;;;;;1.83;1.20;;;5.90;97.00;;;;;;5119939;28;20538;-44
2021/12/01 04:55:59;;;;;;;1.40;0.80;;;6.00;97.10;;;;;;5120661;28;20184;-44
2021/12/01 04:58:25;;;;;;;1.30;1.00;;;6.00;97.00;;;;;;5120132;28;20266;-44
2021/12/01 05:00:50;;;;;;;1.30;0.80;;;6.00;97.00;;;;;;5120151;28;20263;-44
2021/12/01 05:03:16;;;;;;;1.83;1.27;;;6.00;97.00;;;;;;5120592;27;20475;-48
2021/12/01 05:05:42;;;;;;;2.13;1.20;;;6.00;96.90;;;;;;5120576;28;20196;-47
2021/12/01 05:08:07;;;;;;;1.73;1.00;;;6.00;96.90;;;;;;5120480;28;20179;-48
2021/12/01 05:10:33;;;;;;;1.00;0.87;;;6.10;96.90;;;;;;5120813;28;20195;-48
2021/12/01 05:12:58;;;;;;;1.40;0.90;;;6.10;96.80;;;;;;5120683;28;20187;-47
2021/12/01 05:15:24;;;;;;;1.20;1.00;;;6.10;96.70;;;;;;5119713;28;20252;-47
2021/12/01 05:17:50;;;;;;;2.33;0.77;;;6.10;96.70;;;;;;5120088;28;20187;-48
2021/12/01 05:20:16;;;;;;;1.50;0.93;;;6.10;96.60;;;;;;5120117;28;20240;-48
2021/12/01 05:22:43;;;;;;;1.13;0.87;;;6.10;96.60;;;;;;5118854;28;20231;-47
2021/12/01 05:25:09;;;;;;;0.93;0.70;;;6.10;96.60;;;;;;5119018;28;20734;-48
2021/12/01 05:27:34;;;;;;;1.63;1.00;;;6.10;96.60;;;;;;5116512;28;20889;-48
2021/12/01 05:30:00;;;;;;;2.03;1.00;;;6.10;96.70;;;;;;5116851;28;20417;-48
2021/12/01 05:32:26;;;;;;;2.23;0.80;;;6.10;96.70;;;;;;5116842;28;20172;-42
2021/12/01 05:34:52;;;;;;;1.07;0.63;;;6.10;96.70;;;;;;5116774;28;20414;-41
2021/12/01 05:37:18;;;;;;;1.20;0.90;;;6.10;96.70;;;;;;5117402;28;20444;-42
2021/12/01 05:39:45;;;;;;;1.10;0.93;;;6.10;96.70;;;;;;5117758;28;20195;-41
2021/12/01 05:42:16;;;;;;;2.17;1.00;;;6.10;96.70;;;;;;5118812;28;20279;-43
2021/12/01 05:44:42;;;;;;;2.23;0.90;;;6.10;96.70;;;;;;5118849;28;20445;-41
2021/12/01 05:47:08;;;;;;;1.37;1.17;;;6.10;96.70;;;;;;5118076;28;20476;-41
2021/12/01 05:49:33;;;;;;;0.90;0.63;;;6.10;97.00;;;;;;5118258;28;20428;-41
2021/12/01 05:52:00;;;;;;;1.10;0.77;;;6.20;96.80;;;;;;5105701;28;20510;-42
2021/12/01 05:54:26;;;;;;;1.00;0.80;;;6.20;96.80;;;;;;5098666;28;20238;-41
2021/12/01 05:56:52;;;;;;;1.10;0.77;;;6.20;96.90;;;;;;5098306;28;20430;-42
2021/12/01 05:59:18;;;;;;;1.30;0.80;;;6.20;96.90;;;;;;5099054;28;20405;-42
2021/12/01 06:01:43;;;;;;;1.40;1.00;;;6.20;96.90;;;;;;5097367;28;20173;-42
2021/12/01 06:04:09;;;;;;;1.40;0.73;;;6.20;96.90;;;;;;5097884;28;20203;-43
2021/12/01 06:06:34;;;;;;;1.73;0.90;;;6.20;96.80;;;;;;5096630;28;20198;-41
2021/12/01 06:09:00;;;;;;;1.33;0.73;;;6.20;96.80;;;;;;5096789;28;20547;-41
2021/12/01 06:11:26;;;;;;;1.00;0.70;;;6.20;96.90;;;;;;5097071;28;20185;-43
2021/12/01 06:13:53;;;;;;;1.33;0.67;;;6.20;96.90;;;;;;5096765;28;20173;-42
2021/12/01 06:16:20;;;;;;;0.90;0.57;;;6.20;96.80;;;;;;5108305;28;20180;-42
2021/12/01 06:18:46;;;;;;;1.20;0.70;;;6.20;96.90;;;;;;5115263;28;20499;-42
2021/12/01 06:21:12;;;;;;;1.20;0.80;;;6.20;96.90;;;;;;5115289;28;20532;-42
2021/12/01 06:23:38;;;;;;;1.00;0.73;;;6.30;97.00;;;;;;5115531;28;20472;-41
2021/12/01 06:26:03;;;;;;;1.47;0.80;;;6.30;97.00;;;;;;5116587;28;20206;-41
2021/12/01 06:28:29;;;;;;;1.10;0.70;;;6.30;97.00;;;;;;5114792;28;20245;-41
2021/12/01 06:30:54;;;;;;;0.90;0.50;;;6.30;97.10;;;;;;5113772;28;20671;-41
2021/12/01 06:33:21;;;;;;;1.00;0.70;;;6.30;97.00;;;;;;5114216;28;20184;-42
2021/12/01 06:35:49;;;;;;;1.60;0.70;;;6.30;97.00;;;;;;5098608;27;20287;-42
2021/12/01 06:38:15;;;;;;;3.10;1.00;;;6.30;96.90;;;;;;5095381;28;20450;-43
2021/12/01 06:40:41;;;;;;;2.00;1.23;;;6.40;97.00;;;;;;5095209;28;20439;-43
2021/12/01 06:43:07;;;;;;;1.30;0.80;;;6.40;96.90;;;;;;5093700;28;20950;-42
2021/12/01 06:45:32;;;;;;;2.27;0.70;;;6.40;96.90;;;;;;5098986;28;20490;-42
2021/12/01 06:47:58;;;;;;;1.40;1.03;;;6.40;96.80;;;;;;5113175;28;20258;-43
2021/12/01 06:50:23;;;;;;;1.70;0.63;;;6.40;96.70;;;;;;5113216;28;20164;-42
2021/12/01 06:52:49;;;;;;;0.93;0.70;;;6.40;96.70;;;;;;5115230;28;20174;-43
2021/12/01 06:55:15;;;;;;;1.00;0.60;;;6.50;96.70;;;;;;5115522;28;20179;-42
2021/12/01 06:57:41;;;;;;;1.30;0.90;;;6.50;96.40;;;;;;5114901;28;20496;-43
2021/12/01 07:00:10;;;;;;;1.70;0.87;;;6.50;96.40;;;;;;5116000;28;20412;-42
2021/12/01 07:02:36;;;;;;;1.07;0.60;;;6.50;96.20;;;;;;5116039;28;20207;-43
2021/12/01 07:05:01;;;;;;;1.00;0.77;;;6.50;96.20;;;;;;5115777;28;20401;-42
2021/12/01 07:07:27;;;;;;;1.40;0.90;;;6.60;96.10;;;;;;5114910;28;20259;-43
2021/12/01 07:09:53;;;;;;;0.97;0.67;;;6.60;95.90;;;;;;5113691;28;20175;-43
2021/12/01 07:12:19;;;;;;;2.00;0.90;;;6.60;95.80;;;;;;5112939;28;20191;-42
2021/12/01 07:14:44;;;;;;;1.50;0.63;;;6.60;95.70;;;;;;5114330;28;20424;-43
2021/12/01 07:17:10;;;;;;;1.07;0.90;;;6.60;95.50;;;;;;5115586;28;20433;-43
2021/12/01 07:19:36;;;;;;;1.50;0.50;;;6.60;95.50;;;;;;5115997;28;20175;-44
2021/12/01 07:22:01;;;;;;;0.90;0.60;;;6.60;95.40;;;;;;5114878;28;20193;-44
2021/12/01 07:24:29;;;;;;;1.40;0.67;;;6.70;95.40;;;;;;5116399;28;20180;-44
2021/12/01 07:26:55;;;;;;;1.07;0.50;;;6.70;95.40;;;;;;5115554;28;20462;-42
2021/12/01 07:29:21;;;;;;;0.80;0.40;;;6.70;95.40;;;;;;5116433;28;20842;-43
2021/12/01 07:31:48;;;;;;;1.67;0.70;;;6.70;95.30;;;;;;5116381;28;20494;-44
2021/12/01 07:34:14;;;;;;;0.80;0.50;;;6.70;95.20;;;;;;5116671;28;20172;-43
2021/12/01 07:36:40;;;;;;;2.13;0.60;;;6.80;95.20;;;;;;5114415;28;20847;-43
2021/12/01 07:39:06;;;;;;;1.10;0.60;;;6.80;95.20;;;;;;5115926;28;20444;-42
2021/12/01 07:41:31;;;;;;;1.17;0.70;;;6.90;95.20;;;;;;5115052;28;20425;-42
2021/12/01 07:43:57;;;;;;;1.63;0.50;;;6.90;95.20;;;;;;5114195;28;20203;-44
2021/12/01 07:46:23;;;;;;;0.80;0.53;;;6.90;95.00;;;;;;5117473;28;20239;-43
2021/12/01 07:48:48;;;;;;;0.83;0.47;;;7.00;95.00;;;;;;5121455;28;20593;-43
2021/12/01 07:51:15;;;;;;;0.93;0.70;;;7.00;94.90;;;;;;5121772;28;20476;-43
2021/12/01 07:53:41;;;;;;;0.83;0.50;;;7.10;95.00;;;;;;5121132;28;20248;-46
2021/12/01 07:56:07;;;;;;;1.50;0.53;;;7.10;94.90;;;;;;5121098;28;20487;-43
2021/12/01 07:58:32;;;;;;;0.87;0.50;;;7.20;94.80;;;;;;5120191;28;20448;-44
2021/12/01 08:00:58;;;;;;;0.87;0.40;;;7.20;94.80;;;;;;5120568;28;20270;-42
2021/12/01 08:03:24;;;;;;;1.53;0.70;;;7.30;94.80;;;;;;5120887;28;20204;-43
2021/12/01 08:05:49;;;;;;;0.90;0.47;;;7.30;94.80;;;;;;5120901;28;20190;-43
2021/12/01 08:08:15;;;;;;;0.80;0.40;;;7.40;94.80;;;;;;5116043;28;20261;-45
2021/12/01 08:10:41;;;;;;;1.10;0.80;;;7.50;94.70;;;;;;5105408;28;20188;-44
2021/12/01 08:13:07;;;;;;;1.27;0.70;;;7.60;94.60;;;;;;5106571;28;20180;-45
2021/12/01 08:15:33;;;;;;;0.80;0.50;;;7.60;94.50;;;;;;5105619;28;21528;-44
2021/12/01 08:17:59;;;;;;;0.90;0.50;;;7.70;94.40;;;;;;5121288;28;20503;-43
2021/12/01 08:20:26;;;;;;;0.93;0.60;;;7.70;94.20;;;;;;5120016;28;20184;-43
2021/12/01 08:22:52;;;;;;;1.13;0.60;;;7.70;94.20;;;;;;5118822;28;20517;-43
2021/12/01 08:25:17;;;;;;;1.40;0.60;;;7.80;94.20;;;;;;5118204;28;20413;-43
2021/12/01 08:27:43;;;;;;;0.77;0.40;;;7.80;94.20;;;;;;5118563;28;20403;-43
2021/12/01 08:30:09;;;;;;;1.00;0.40;;;7.80;94.20;;;;;;5117664;28;20171;-43
2021/12/01 08:32:35;;;;;;;1.00;0.50;;;7.80;94.20;;;;;;5116328;28;20472;-43
2021/12/01 08:35:01;;;;;;;6.37;0.60;;;7.90;94.30;;;;;;5116728;28;20414;-46
2021/12/01 08:37:26;;;;;;;9.93;0.60;;;9.40;99.90;;;;;;5116264;28;20495;-45
2021/12/01 08:39:52;;;;;;;1.43;0.50;;;11.20;99.90;;;;;;5116972;28;20184;-44
2021/12/01 08:42:22;;;;;;;1.93;0.63;;;12.60;96.50;;;;;;5116926;28;20210;-42
2021/12/01 08:44:49;;;;;;;1.07;0.50;;;13.70;93.60;;;;;;5118746;28;20168;-46
2021/12/01 08:47:16;;;;;;;1.10;0.50;;;13.50;86.20;;;;;;5119039;28;20745;-42
2021/12/01 08:49:42;;;;;;;1.00;0.60;;;12.90;81.50;;;;;;5119055;28;20702;-43
2021/12/01 08:52:08;;;;;;;1.20;0.50;;;12.40;80.90;;;;;;5119763;28;20443;-41
2021/12/01 08:54:34;;;;;;;0.90;0.63;;;11.90;81.00;;;;;;5120202;28;20470;-43
2021/12/01 08:57:00;;;;;;;1.10;0.70;;;11.50;82.10;;;;;;5117463;27;20597;-40
2021/12/01 08:59:26;;;;;;;0.90;0.50;;;11.00;82.90;;;;;;5118344;28;20406;-42
2021/12/01 09:01:52;;;;;;;0.70;0.30;;;10.90;84.20;;;;;;5118768;28;20428;-41
2021/12/01 09:04:18;;;;;;;1.20;0.50;;;10.90;84.50;;;;;;5118716;28;20168;-41
2021/12/01 09:06:44;;;;;;;0.83;0.40;;;10.90;84.80;;;;;;5117059;28;20383;-42
2021/12/01 09:09:17;;;;;;;0.90;0.40;;;11.10;84.80;;;;;;5116697;28;20405;-41
2021/12/01 09:11:43;;;;;;;0.77;0.40;;;11.20;84.50;;;;;;5118016;28;20438;-41
2021/12/01 09:14:09;;;;;;;1.30;0.40;;;11.50;83.70;;;;;;5119017;28;20413;-40
2021/12/01 09:16:35;;;;;;;1.10;0.70;;;11.70;82.70;;;;;;5119094;28;20440;-43
2021/12/01 09:19:01;;;;;;;0.90;0.40;;;12.10;82.60;;;;;;5116982;28;20560;-44
2021/12/01 09:21:26;;;;;;;1.27;0.50;;;12.80;81.90;;;;;;5116916;28;20183;-43
2021/12/01 09:23:52;;;;;;;1.67;0.53;;;13.80;78.80;;;;;;5118169;28;20465;-44
2021/12/01 09:26:18;;;;;;;0.90;0.50;;;14.90;76.20;;;;;;5118220;28;20561;-43
2021/12/01 09:28:44;;;;;;;0.90;0.43;;;16.00;73.10;;;;;;5116577;28;20208;-44
2021/12/01 09:31:09;;;;;;;0.93;0.50;;;16.60;67.00;;;;;;5098472;28;20322;-44
2021/12/01 09:33:35;;;;;;;1.17;0.50;;;16.70;64.00;;;;;;5118189;28;20621;-43
2021/12/01 09:36:03;;;;;;;1.60;0.83;;;16.40;61.80;;;;;;5118980;28;20180;-46
2021/12/01 09:38:30;;;;;;;1.07;0.60;;;15.80;61.90;;;;;;5120307;28;20542;-44
2021/12/01 09:40:57;;;;;;;1.00;0.43;;;15.20;63.00;;;;;;5118973;28;20889;-42
2021/12/01 09:43:26;;;;;;;0.80;0.43;;;14.60;64.90;;;;;;5119452;28;20461;-43
2021/12/01 09:45:54;;;;;;;1.00;0.50;;;14.00;66.40;;;;;;5119155;28;20433;-44
2021/12/01 09:48:20;;;;;;;0.70;0.33;;;13.60;68.20;;;;;;5118932;28;20429;-41
2021/12/01 09:50:46;;;;;;;0.87;0.40;;;13.30;69.70;;;;;;5118145;28;20696;-48
2021/12/01 09:53:12;;;;;;;1.00;0.50;;;13.10;70.60;;;;;;5117352;27;20767;-42
2021/12/01 09:55:40;;;;;;;0.70;0.30;;;13.00;72.20;;;;;;5117818;28;20818;-43
2021/12/01 09:58:15;;;;;;;0.83;0.50;;;13.30;72.50;;;;;;5118313;28;20481;-45
2021/12/01 10:00:45;;;;;;;0.90;0.43;;;13.60;71.80;;;;;;5116963;28;20433;-42
2021/12/01 10:03:11;;;;;;;1.90;0.47;;;13.50;71.10;;;;;;5117238;28;20476;-45
2021/12/01 10:05:49;;;;;;;1.43;0.40;;;13.30;71.30;;;;;;5117139;28;20424;-43
2021/12/01 10:08:26;;;;;;;1.20;0.53;;;13.10;71.80;;;;;;5117776;28;20168;-45
2021/12/01 10:10:52;;;;;;;0.83;0.57;;;13.80;82.60;;;;;;5116691;28;20569;-44
2021/12/01 10:13:30;;;;;;;1.20;0.57;;;13.60;75.70;;;;;;5117550;28;20409;-45
2021/12/01 10:15:59;;;;;;;1.10;0.60;;;13.50;74.50;;;;;;5116530;28;20460;-42
2021/12/01 10:18:26;;;;;;;0.80;0.40;;;13.20;74.10;;;;;;5098721;28;20425;-41
2021/12/01 10:21:02;;;;;;;1.00;0.43;;;12.90;74.90;;;;;;5116870;28;20424;-42
2021/12/01 10:23:29;;;;;;;1.00;0.37;;;12.50;75.20;;;;;;5117583;28;20544;-43
2021/12/01 10:25:54;;;;;;;0.80;0.40;;;12.40;76.20;;;;;;5118575;28;20706;-42
2021/12/01 10:28:48;;;;;;;1.00;0.50;;;12.20;76.70;;;;;;5117677;28;20568;-41
2021/12/01 10:31:14;;;;;;;0.70;0.30;;;12.00;77.30;;;;;;5113623;28;20188;-42
2021/12/01 10:33:41;;;;;;;0.93;0.50;;;11.80;77.90;;;;;;5116708;28;20838;-44
2021/12/01 10:36:08;;;;;;;0.90;0.40;;;11.60;78.40;;;;;;5116370;28;20448;-41
2021/12/01 10:38:38;;;;;;;2.17;0.60;;;11.50;79.10;;;;;;5116734;28;20416;-44
2021/12/01 10:41:10;;;;;;;0.93;0.40;;;11.30;79.60;;;;;;5117176;28;20430;-42
2021/12/01 10:43:38;;;;;;;1.00;0.40;;;11.20;80.40;;;;;;5114977;28;20457;-42
2021/12/01 10:46:12;;;;;;;0.90;0.43;;;11.00;81.30;;;;;;5115064;28;20445;-42
2021/12/01 10:48:40;;;;;;;1.03;0.60;;;11.00;81.90;;;;;;5114925;28;20427;-42
2021/12/01 10:51:08;;;;;;;0.80;0.50;;;11.00;82.40;;;;;;5098211;28;20668;-44
2021/12/01 10:53:34;;;;;;;0.80;0.40;;;11.00;82.60;;;;;;5115234;28;20542;-41
2021/12/01 10:56:01;;;;;;;0.80;0.50;;;11.10;83.10;;;;;;5116477;28;20760;-41
2021/12/01 10:58:36;;;;;;;0.80;0.43;;;11.00;83.40;;;;;;5116810;28;20182;-41
2021/12/01 11:01:03;;;;;;;0.90;0.40;;;11.00;83.80;;;;;;5116705;28;20490;-42
2021/12/01 11:03:32;;;;;;;0.80;0.50;;;11.10;84.00;;;;;;5116095;28;20472;-42
2021/12/01 11:06:12;;;;;;;0.93;0.50;;;11.20;84.40;;;;;;5114641;28;20832;-39
2021/12/01 11:08:42;;;;;;;1.30;0.80;;;11.30;84.90;;;;;;5117107;28;20402;-40
2021/12/01 11:11:13;;;;;;;1.30;0.80;;;11.40;85.10;;;;;;5116106;28;20494;-41
2021/12/01 11:13:45;;;;;;;1.60;1.10;;;11.70;85.20;;;;;;5115598;28;20418;-42
2021/12/01 11:16:12;;;;;;;0.80;0.43;;;11.90;84.50;;;;;;5117018;28;20444;-41
2021/12/01 11:18:41;;;;;;;1.00;0.60;;;12.00;84.20;;;;;;5115542;28;20414;-42
2021/12/01 11:21:22;;;;;;;0.97;0.40;;;12.10;84.40;;;;;;5114912;28;20431;-42
2021/12/01 11:23:56;;;;;;;1.30;0.40;;;12.10;84.60;;;;;;5115537;28;20557;-42
2021/12/01 11:26:27;;;;;;;1.33;0.50;;;12.10;84.80;;;;;;5115661;28;20422;-41
2021/12/01 11:28:55;;;;;;;1.00;0.40;;;12.00;84.80;;;;;;5115507;28;20537;-41
2021/12/01 11:31:32;;;;;;;1.17;0.60;;;11.90;85.50;;;;;;5116167;28;20461;-42
2021/12/01 11:34:00;;;;;;;1.13;0.60;;;11.90;86.20;;;;;;5114378;28;20464;-43
2021/12/01 11:36:28;;;;;;;2.30;0.60;;;11.80;87.00;;;;;;5114386;28;20472;-43
2021/12/01 11:38:57;;;;;;;1.23;0.60;;;11.80;87.50;;;;;;5113978;28;20540;-42
2021/12/01 11:41:23;;;;;;;1.17;0.40;;;11.80;88.80;;;;;;5113813;28;20778;-43
2021/12/01 11:43:49;;;;;;;0.97;0.40;;;11.80;88.80;;;;;;5114458;28;20585;-42
2021/12/01 11:46:16;;;;;;;1.67;0.40;;;11.80;89.30;;;;;;5113677;28;20430;-44
2021/12/01 11:48:51;;;;;;;1.00;0.60;;;11.70;90.00;;;;;;5114863;28;20470;-43
2021/12/01 11:51:22;;;;;;;0.70;0.40;;;11.70;90.00;;;;;;5114568;28;20717;-43
2021/12/01 11:54:05;;;;;;;1.50;0.50;;;11.70;90.20;;;;;;5113121;28;20489;-44
2021/12/01 11:56:34;;;;;;;0.90;0.60;;;11.60;90.30;;;;;;5114686;28;20699;-42
2021/12/01 11:59:24;;;;;;;1.73;0.73;;;11.60;90.50;;;;;;5115577;28;20496;-42
2021/12/01 12:02:00;;;;;;;1.00;0.67;;;11.50;90.50;;;;;;5115460;28;20429;-42
2021/12/01 12:04:29;;;;;;;1.00;0.60;;;11.50;90.60;;;;;;5113547;28;20425;-43
2021/12/01 12:07:02;;;;;;;1.10;0.60;;;11.40;90.70;;;;;;5116928;28;20419;-43
2021/12/01 12:09:29;;;;;;;1.13;0.80;;;11.30;90.70;;;;;;5114704;28;20423;-42
2021/12/01 12:12:00;;;;;;;1.30;1.10;;;11.30;90.80;;;;;;5115264;28;20448;-43
2021/12/01 12:14:36;;;;;;;1.50;1.03;;;11.20;91.00;;;;;;5115341;28;20471;-43
2021/12/01 12:17:03;;;;;;;1.20;0.80;;;11.00;91.10;;;;;;5113423;28;20531;-45
2021/12/01 12:20:02;;;;;;;1.10;0.93;;;11.00;91.20;;;;;;5113316;28;20398;-43
2021/12/01 12:22:39;;;;;;;2.60;1.50;;;11.00;91.40;;;;;;5113141;28;20769;-43
2021/12/01 12:25:12;;;;;;;0.80;0.47;;;10.90;91.60;;;;;;5115865;28;20394;-44
2021/12/01 12:27:43;;;;;;;2.50;0.50;;;11.00;94.50;;;;;;5098116;28;20732;-45
2021/12/01 12:30:29;;;;;;;0.90;0.70;;;12.90;97.10;;;;;;5115434;28;20917;-41
2021/12/01 12:33:16;;;;;;;1.90;1.10;;;13.80;93.90;;;;;;5101728;28;20421;-41
2021/12/01 12:35:44;;;;;;;1.60;0.93;;;13.50;90.10;;;;;;5119753;28;20797;-41
2021/12/01 12:38:11;;;;;;;1.30;0.97;;;13.30;90.00;;;;;;5119040;28;20406;-40
2021/12/01 12:40:38;;;;;;;1.17;0.70;;;13.00;89.40;;;;;;5118672;28;20526;-40
2021/12/01 12:43:08;;;;;;;2.80;1.00;;;12.90;91.50;;;;;;5118939;28;20467;-40
2021/12/01 12:45:34;;;;;;;1.53;0.77;;;13.00;92.20;;;;;;5118516;28;20443;-41
2021/12/01 12:48:00;;;;;;;1.77;1.10;;;13.20;92.40;;;;;;5117462;28;20875;-43
2021/12/01 12:50:25;;;;;;;1.40;0.97;;;13.20;90.60;;;;;;5118743;28;20402;-42
2021/12/01 12:52:54;;;;;;;2.20;1.57;;;13.00;89.20;;;;;;5119024;28;20287;-44
2021/12/01 12:55:23;;;;;;;1.90;1.47;;;12.70;88.90;;;;;;5118103;28;20466;-42
2021/12/01 12:57:58;;;;;;;1.93;1.20;;;12.40;89.00;;;;;;5118575;28;20682;-43
2021/12/01 13:00:40;;;;;;;1.90;1.20;;;12.00;89.90;;;;;;5116278;28;20809;-42
2021/12/01 13:03:24;;;;;;;1.40;1.30;;;11.60;90.70;;;;;;5117437;28;20471;-42
2021/12/01 13:05:51;;;;;;;4.70;1.30;;;11.30;91.30;;;;;;5119351;28;20420;-44
2021/12/01 13:08:26;;;;;;;1.27;1.00;;;11.10;91.60;;;;;;5117962;28;20418;-42